createdAt,value
2023-05-08T00:00:28.990Z,18.20
2023-05-08T00:03:12.447Z,18.50
2023-05-08T00:05:44.783Z,18.40
2023-05-08T00:08:19.639Z,18.63
2023-05-08T00:11:06.071Z,18.60
2023-05-08T00:13:46.076Z,17.97
2023-05-08T00:16:23.989Z,17.50
2023-05-08T00:19:16.431Z,18.30
2023-05-08T00:22:10.472Z,18.77
2023-05-08T00:25:02.981Z,17.13
2023-05-08T00:27:59.313Z,17.40
2023-05-08T00:30:45.946Z,18.03
2023-05-08T00:33:40.045Z,17.97
2023-05-08T00:36:12.602Z,19.70
2023-05-08T00:38:54.110Z,18.50
2023-05-08T00:41:27.034Z,17.03
2023-05-08T00:43:58.175Z,18.93
2023-05-08T00:46:31.871Z,18.67
2023-05-08T00:49:02.883Z,18.20
2023-05-08T00:51:34.689Z,17.47
2023-05-08T00:54:06.100Z,18.33
2023-05-08T00:56:38.650Z,18.43
2023-05-08T00:59:12.619Z,18.23
2023-05-08T01:01:48.094Z,17.87
2023-05-08T01:04:20.620Z,18.20
2023-05-08T01:06:51.666Z,18.73
2023-05-08T01:09:22.771Z,18.80
2023-05-08T01:12:11.294Z,18.10
2023-05-08T01:14:59.538Z,19.13
2023-05-08T01:17:41.242Z,19.13
2023-05-08T01:20:21.995Z,19.07
2023-05-08T01:23:25.919Z,18.40
2023-05-08T01:26:24.443Z,17.13
2023-05-08T01:29:20.087Z,18.00
2023-05-08T01:32:15.962Z,18.63
2023-05-08T01:35:00.145Z,18.70
2023-05-08T01:37:37.641Z,18.20
2023-05-08T01:40:15.844Z,18.20
2023-05-08T01:42:52.105Z,19.67
2023-05-08T01:45:28.590Z,17.60
2023-05-08T01:48:11.000Z,17.97
2023-05-08T01:50:49.710Z,17.63
2023-05-08T01:53:27.099Z,16.57
2023-05-08T01:56:05.544Z,17.83
2023-05-08T01:58:38.488Z,16.50
2023-05-08T02:01:10.734Z,17.27
2023-05-08T02:03:46.348Z,16.53
2023-05-08T02:06:22.874Z,16.40
2023-05-08T02:08:56.595Z,17.37
2023-05-08T02:11:32.000Z,16.40
2023-05-08T02:14:05.013Z,17.10
2023-05-08T02:16:37.216Z,18.13
2023-05-08T02:19:14.461Z,18.33
2023-05-08T02:21:49.518Z,17.70
2023-05-08T02:24:20.804Z,16.80
2023-05-08T02:26:53.126Z,17.80
2023-05-08T02:29:25.384Z,16.53
2023-05-08T02:31:57.729Z,17.53
2023-05-08T02:34:31.875Z,17.87
2023-05-08T02:37:07.052Z,17.30
2023-05-08T02:39:39.441Z,17.37
2023-05-08T02:42:11.135Z,16.57
2023-05-08T02:44:42.177Z,16.47
2023-05-08T02:47:22.970Z,15.87
2023-05-08T02:49:59.216Z,16.43
2023-05-08T02:52:38.094Z,17.07
2023-05-08T02:55:17.926Z,16.77
2023-05-08T02:57:53.440Z,16.50
2023-05-08T03:00:29.558Z,17.50
2023-05-08T03:03:04.272Z,17.03
2023-05-08T03:05:38.482Z,17.73
2023-05-08T03:08:18.332Z,16.73
2023-05-08T03:10:52.250Z,17.20
2023-05-08T03:13:27.407Z,17.30
2023-05-08T03:16:01.784Z,16.93
2023-05-08T03:18:40.665Z,15.97
2023-05-08T03:21:13.944Z,15.53
2023-05-08T03:23:49.525Z,17.83
2023-05-08T03:26:22.489Z,15.80
2023-05-08T03:28:55.245Z,17.87
2023-05-08T03:31:27.074Z,16.73
2023-05-08T03:33:59.101Z,17.10
2023-05-08T03:36:30.182Z,17.87
2023-05-08T03:39:03.997Z,16.70
2023-05-08T03:41:35.264Z,16.60
2023-05-08T03:44:06.972Z,17.77
2023-05-08T03:46:40.471Z,17.80
2023-05-08T03:49:12.585Z,17.30
2023-05-08T03:51:44.003Z,16.73
2023-05-08T03:54:17.665Z,18.00
2023-05-08T03:56:48.574Z,17.20
2023-05-08T03:59:27.064Z,17.67
2023-05-08T04:02:03.211Z,18.60
2023-05-08T04:04:42.592Z,16.80
2023-05-08T04:07:18.243Z,17.43
2023-05-08T04:10:02.453Z,16.60
2023-05-08T04:12:41.222Z,17.10
2023-05-08T04:15:23.324Z,17.10
2023-05-08T04:17:58.982Z,17.90
2023-05-08T04:20:32.194Z,17.40
2023-05-08T04:23:05.080Z,16.27
2023-05-08T04:25:41.863Z,16.97
2023-05-08T04:28:14.093Z,16.93
2023-05-08T04:30:45.467Z,17.40
2023-05-08T04:33:18.732Z,17.27
2023-05-08T04:35:49.721Z,17.70
2023-05-08T04:38:20.928Z,18.00
2023-05-08T04:40:54.412Z,17.47
2023-05-08T04:43:26.668Z,18.30
2023-05-08T04:45:57.653Z,18.00
2023-05-08T04:48:29.796Z,18.80
2023-05-08T04:51:00.869Z,19.57
2023-05-08T04:53:31.856Z,18.80
2023-05-08T04:56:05.454Z,17.97
2023-05-08T04:58:36.307Z,18.93
2023-05-08T05:01:07.773Z,17.50
2023-05-08T05:03:41.891Z,19.57
2023-05-08T05:06:12.826Z,19.00
2023-05-08T05:08:43.765Z,19.20
2023-05-08T05:11:17.308Z,19.27
2023-05-08T05:13:48.215Z,17.43
2023-05-08T05:16:19.258Z,18.93
2023-05-08T05:18:54.848Z,18.10
2023-05-08T05:21:26.139Z,17.20
2023-05-08T05:23:57.109Z,18.10
2023-05-08T05:26:30.679Z,17.97
2023-05-08T05:29:01.702Z,18.77
2023-05-08T05:31:33.023Z,16.17
2023-05-08T05:34:04.155Z,17.30
2023-05-08T05:36:35.141Z,15.90
2023-05-08T05:39:06.222Z,16.73
2023-05-08T05:41:44.335Z,16.03
2023-05-08T05:44:15.534Z,17.50
2023-05-08T05:46:46.553Z,15.00
2023-05-08T05:49:17.836Z,17.10
2023-05-08T05:51:49.062Z,16.37
2023-05-08T05:54:20.039Z,16.77
2023-05-08T05:56:56.209Z,16.27
2023-05-08T05:59:27.317Z,16.73
2023-05-08T06:01:58.380Z,16.40
2023-05-08T06:04:29.683Z,16.40
2023-05-08T06:07:00.758Z,15.90
2023-05-08T06:09:31.657Z,15.90
2023-05-08T06:12:05.259Z,17.10
2023-05-08T06:14:36.124Z,17.10
2023-05-08T06:17:07.064Z,17.77
2023-05-08T06:19:40.747Z,18.00
2023-05-08T06:22:11.748Z,17.87
2023-05-08T06:24:43.511Z,17.73
2023-05-08T06:27:17.048Z,17.90
2023-05-08T06:29:48.316Z,18.27
2023-05-08T06:32:28.286Z,17.97
2023-05-08T06:34:59.487Z,15.83
2023-05-08T06:37:30.665Z,17.10
2023-05-08T06:40:12.034Z,17.70
2023-05-08T06:42:46.373Z,17.80
2023-05-08T06:45:17.467Z,17.30
2023-05-08T06:47:48.564Z,18.17
2023-05-08T06:50:19.540Z,17.57
2023-05-08T06:52:52.865Z,17.10
2023-05-08T06:55:24.056Z,17.63
2023-05-08T06:57:57.893Z,16.67
2023-05-08T07:00:29.651Z,16.77
2023-05-08T07:03:00.556Z,18.67
2023-05-08T07:05:31.481Z,17.70
2023-05-08T07:08:02.626Z,17.10
2023-05-08T07:10:35.836Z,17.07
2023-05-08T07:13:09.811Z,18.20
2023-05-08T07:15:40.874Z,17.77
2023-05-08T07:18:11.783Z,19.13
2023-05-08T07:20:42.594Z,17.33
2023-05-08T07:23:13.412Z,17.50
2023-05-08T07:25:44.269Z,16.90
2023-05-08T07:28:17.661Z,15.43
2023-05-08T07:30:48.570Z,14.47
2023-05-08T07:33:19.688Z,14.27
2023-05-08T07:35:53.801Z,12.70
2023-05-08T07:38:24.709Z,11.30
2023-05-08T07:40:57.449Z,10.73
2023-05-08T07:43:31.113Z,10.20
2023-05-08T07:46:02.189Z,9.80
2023-05-08T07:48:33.042Z,10.37
2023-05-08T07:51:03.985Z,10.00
2023-05-08T07:53:34.838Z,9.57
2023-05-08T07:56:06.930Z,9.40
2023-05-08T07:58:40.605Z,7.90
2023-05-08T08:01:14.697Z,8.87
2023-05-08T08:03:48.392Z,6.67
2023-05-08T08:06:19.376Z,6.40
2023-05-08T08:08:52.248Z,6.67
2023-05-08T08:11:23.102Z,6.60
2023-05-08T08:13:56.481Z,5.73
2023-05-08T08:16:27.556Z,5.40
2023-05-08T08:18:58.543Z,5.83
2023-05-08T08:21:30.021Z,5.80
2023-05-08T08:24:00.866Z,6.67
2023-05-08T08:26:31.778Z,7.10
2023-05-08T08:29:05.403Z,7.90
2023-05-08T08:31:36.387Z,8.07
2023-05-08T08:34:09.543Z,8.40
2023-05-08T08:36:41.576Z,7.70
2023-05-08T08:39:13.880Z,8.90
2023-05-08T08:41:46.204Z,9.37
2023-05-08T08:44:19.847Z,9.30
2023-05-08T08:46:54.716Z,9.70
2023-05-08T08:49:31.439Z,8.80
2023-05-08T08:52:09.442Z,8.50
2023-05-08T08:54:41.545Z,9.40
2023-05-08T08:57:13.817Z,8.00
2023-05-08T08:59:48.032Z,7.53
2023-05-08T09:02:24.317Z,7.60
2023-05-08T09:04:55.324Z,7.57
2023-05-08T09:07:27.596Z,8.00
2023-05-08T09:09:58.681Z,7.63
2023-05-08T09:12:29.573Z,7.70
2023-05-08T09:15:03.239Z,6.80
2023-05-08T09:17:34.089Z,6.47
2023-05-08T09:20:05.701Z,5.97
2023-05-08T09:22:39.569Z,6.30
2023-05-08T09:25:11.857Z,5.80
2023-05-08T09:27:43.017Z,6.23
2023-05-08T09:30:18.944Z,5.23
2023-05-08T09:32:50.110Z,5.60
2023-05-08T09:35:20.987Z,5.43
2023-05-08T09:37:51.786Z,5.53
2023-05-08T09:40:24.874Z,5.97
2023-05-08T09:42:55.884Z,5.87
2023-05-08T09:45:35.586Z,6.80
2023-05-08T09:48:10.018Z,7.50
2023-05-08T09:50:42.391Z,6.60
2023-05-08T09:53:14.387Z,6.80
2023-05-08T09:55:53.395Z,6.77
2023-05-08T09:58:26.731Z,7.17
2023-05-08T10:01:00.722Z,7.20
2023-05-08T10:03:48.784Z,6.80
2023-05-08T10:06:19.912Z,5.60
2023-05-08T10:09:05.576Z,5.70
2023-05-08T10:11:36.514Z,5.60
2023-05-08T10:14:07.513Z,5.17
2023-05-08T10:16:49.394Z,4.83
2023-05-08T10:19:22.299Z,4.80
2023-05-08T10:21:56.159Z,5.70
2023-05-08T10:24:31.112Z,4.97
2023-05-08T10:27:08.230Z,5.30
2023-05-08T10:29:46.959Z,4.83
2023-05-08T10:32:23.053Z,4.70
2023-05-08T10:34:57.219Z,4.30
2023-05-08T10:37:30.912Z,3.97
2023-05-08T10:40:02.576Z,4.57
2023-05-08T10:42:34.040Z,4.20
2023-05-08T10:45:06.559Z,4.63
2023-05-08T10:47:51.487Z,4.43
2023-05-08T10:50:36.672Z,4.07
2023-05-08T10:53:11.603Z,4.20
2023-05-08T10:55:45.273Z,4.27
2023-05-08T10:58:17.827Z,4.60
2023-05-08T11:01:17.773Z,4.60
2023-05-08T11:03:56.419Z,4.33
2023-05-08T11:06:46.763Z,4.40
2023-05-08T11:09:22.603Z,3.93
2023-05-08T11:12:10.036Z,3.73
2023-05-08T11:14:44.904Z,4.30
2023-05-08T11:17:16.214Z,4.57
2023-05-08T11:20:01.046Z,3.50
2023-05-08T11:22:33.395Z,3.70
2023-05-08T11:25:06.732Z,4.53
2023-05-08T11:28:21.962Z,4.10
2023-05-08T11:30:56.740Z,4.50
2023-05-08T11:33:33.507Z,4.40
2023-05-08T11:36:16.535Z,4.30
2023-05-08T11:39:08.014Z,4.40
2023-05-08T11:41:39.365Z,4.90
2023-05-08T11:44:23.960Z,4.20
2023-05-08T11:46:56.247Z,4.67
2023-05-08T11:49:30.207Z,4.00
2023-05-08T11:52:06.134Z,4.13
2023-05-08T11:54:37.367Z,3.70
2023-05-08T11:57:08.275Z,4.40
2023-05-08T11:59:39.766Z,4.40
2023-05-08T12:02:10.681Z,4.17
2023-05-08T12:04:51.566Z,4.10
2023-05-08T12:07:25.112Z,4.30
2023-05-08T12:09:56.029Z,4.37
2023-05-08T12:12:26.918Z,4.80
2023-05-08T12:14:57.772Z,4.63
2023-05-08T12:17:28.778Z,4.43
2023-05-08T12:20:04.277Z,4.90
2023-05-08T12:22:38.068Z,4.43
2023-05-08T12:25:10.484Z,5.17
2023-05-08T12:27:41.848Z,4.40
2023-05-08T12:30:15.527Z,5.07
2023-05-08T12:32:47.757Z,4.57
2023-05-08T12:35:19.067Z,4.30
2023-05-08T12:37:54.146Z,4.53
2023-05-08T12:40:30.304Z,4.37
2023-05-08T12:43:03.833Z,4.10
2023-05-08T12:45:39.567Z,3.23
2023-05-08T12:48:12.001Z,3.60
2023-05-08T12:50:44.878Z,3.20
2023-05-08T12:53:20.126Z,3.70
2023-05-08T12:55:57.490Z,3.70
2023-05-08T12:58:30.060Z,3.77
2023-05-08T13:01:10.222Z,3.67
2023-05-08T13:03:41.718Z,3.47
2023-05-08T13:06:23.464Z,3.83
2023-05-08T13:08:58.667Z,3.83
2023-05-08T13:11:34.612Z,4.10
2023-05-08T13:14:06.505Z,4.07
2023-05-08T13:16:45.404Z,4.10
2023-05-08T13:19:17.055Z,4.17
2023-05-08T13:21:52.026Z,4.13
2023-05-08T13:24:28.652Z,3.70
2023-05-08T13:26:59.840Z,3.77
2023-05-08T13:29:30.903Z,4.17
2023-05-08T13:32:04.639Z,4.50
2023-05-08T13:34:37.780Z,4.10
2023-05-08T13:37:13.183Z,4.70
2023-05-08T13:39:46.789Z,5.07
2023-05-08T13:42:17.610Z,4.80
2023-05-08T13:44:48.442Z,5.53
2023-05-08T13:47:20.105Z,5.30
2023-05-08T13:49:53.761Z,5.03
2023-05-08T13:52:25.092Z,4.80
2023-05-08T13:54:58.746Z,4.27
2023-05-08T13:57:29.783Z,4.90
2023-05-08T14:00:01.144Z,5.73
2023-05-08T14:02:32.010Z,5.87
2023-05-08T14:05:02.951Z,5.27
2023-05-08T14:07:33.839Z,5.10
2023-05-08T14:10:09.588Z,5.67
2023-05-08T14:12:40.652Z,5.87
2023-05-08T14:15:13.120Z,5.30
2023-05-08T14:17:44.724Z,4.83
2023-05-08T14:20:15.858Z,5.33
2023-05-08T14:22:47.350Z,5.30
2023-05-08T14:25:21.059Z,5.60
2023-05-08T14:27:51.838Z,5.63
2023-05-08T14:30:22.912Z,5.27
2023-05-08T14:32:53.820Z,5.50
2023-05-08T14:35:24.780Z,5.50
2023-05-08T14:37:58.027Z,5.50
2023-05-08T14:40:31.625Z,5.30
2023-05-08T14:43:02.483Z,5.60
2023-05-08T14:45:33.405Z,5.43
2023-05-08T14:48:04.498Z,5.10
2023-05-08T14:50:35.368Z,5.53
2023-05-08T14:53:06.337Z,6.00
2023-05-08T14:55:40.402Z,5.50
2023-05-08T14:58:11.790Z,5.23
2023-05-08T15:00:42.932Z,5.67
2023-05-08T15:03:13.964Z,5.70
2023-05-08T15:05:47.297Z,5.57
2023-05-08T15:08:18.247Z,5.70
2023-05-08T15:10:52.330Z,5.60
2023-05-08T15:13:23.175Z,6.03
2023-05-08T15:15:54.168Z,5.90
2023-05-08T15:18:28.520Z,6.27
2023-05-08T15:20:59.718Z,6.20
2023-05-08T15:23:30.713Z,5.90
2023-05-08T15:26:05.672Z,5.63
2023-05-08T15:28:36.601Z,5.97
2023-05-08T15:31:07.806Z,6.30
2023-05-08T15:33:40.752Z,5.93
2023-05-08T15:36:11.804Z,6.30
2023-05-08T15:38:43.042Z,6.40
2023-05-08T15:41:16.716Z,6.07
2023-05-08T15:43:47.957Z,5.90
2023-05-08T15:46:18.922Z,6.00
2023-05-08T15:48:49.918Z,6.30
2023-05-08T15:51:20.813Z,5.73
2023-05-08T15:53:52.378Z,5.93
2023-05-08T15:56:26.516Z,6.03
2023-05-08T15:58:57.539Z,6.07
2023-05-08T16:01:30.406Z,6.20
2023-05-08T16:04:01.451Z,5.83
2023-05-08T16:06:37.670Z,5.60
2023-05-08T16:09:10.866Z,5.97
2023-05-08T16:11:46.625Z,5.50
2023-05-08T16:14:17.568Z,6.10
2023-05-08T16:16:48.491Z,6.10
2023-05-08T16:19:19.399Z,5.13
2023-05-08T16:21:53.373Z,5.53
2023-05-08T16:24:24.306Z,5.70
2023-05-08T16:26:57.918Z,5.50
2023-05-08T16:29:31.209Z,6.23
2023-05-08T16:32:02.138Z,5.70
2023-05-08T16:34:35.308Z,5.37
2023-05-08T16:37:06.258Z,6.33
2023-05-08T16:39:37.828Z,6.30
2023-05-08T16:42:11.837Z,5.40
2023-05-08T16:44:42.737Z,7.13
2023-05-08T16:47:13.644Z,5.90
2023-05-08T16:49:45.158Z,5.50
2023-05-08T16:52:16.130Z,6.43
2023-05-08T16:54:47.010Z,6.57
2023-05-08T16:57:20.543Z,5.83
2023-05-08T16:59:52.033Z,6.23
2023-05-08T17:02:23.092Z,5.93
2023-05-08T17:04:54.154Z,6.57
2023-05-08T17:07:25.099Z,6.50
2023-05-08T17:09:59.314Z,6.50
2023-05-08T17:12:32.946Z,6.20
2023-05-08T17:15:43.254Z,6.30
2023-05-08T17:18:14.225Z,6.43
2023-05-08T17:20:45.234Z,6.40
2023-05-08T17:23:16.355Z,6.53
2023-05-08T17:25:47.275Z,6.80
2023-05-08T17:28:20.826Z,6.63
2023-05-08T17:30:51.777Z,6.80
2023-05-08T17:33:22.700Z,6.60
2023-05-08T17:35:56.011Z,6.77
2023-05-08T17:38:26.893Z,7.53
2023-05-08T17:40:57.908Z,6.80
2023-05-08T17:43:31.679Z,6.73
2023-05-08T17:46:05.379Z,6.70
2023-05-08T17:48:37.110Z,6.23
2023-05-08T17:51:08.024Z,7.40
2023-05-08T17:53:39.375Z,7.00
2023-05-08T17:56:11.357Z,7.50
2023-05-08T17:58:45.075Z,7.17
2023-05-08T18:01:16.283Z,7.53
2023-05-08T18:03:48.329Z,8.07
2023-05-08T18:06:22.143Z,7.40
2023-05-08T18:08:53.042Z,7.37
2023-05-08T18:11:25.320Z,7.67
2023-05-08T18:13:58.802Z,7.57
2023-05-08T18:16:29.904Z,7.60
2023-05-08T18:19:00.923Z,7.30
2023-05-08T18:21:31.958Z,7.70
2023-05-08T18:24:03.073Z,7.83
2023-05-08T18:26:34.101Z,7.23
2023-05-08T18:29:07.645Z,7.90
2023-05-08T18:31:38.618Z,7.60
2023-05-08T18:34:09.558Z,7.33
2023-05-08T18:36:40.483Z,6.90
2023-05-08T18:39:11.864Z,8.80
2023-05-08T18:41:44.601Z,8.13
2023-05-08T18:44:18.218Z,7.60
2023-05-08T18:46:49.242Z,7.40
2023-05-08T18:49:20.911Z,7.40
2023-05-08T18:51:54.096Z,8.03
2023-05-08T18:54:27.101Z,8.30
2023-05-08T18:56:58.103Z,7.97
2023-05-08T18:59:31.626Z,7.60
2023-05-08T19:02:02.475Z,8.07
2023-05-08T19:04:33.503Z,6.90
2023-05-08T19:07:04.383Z,6.20
2023-05-08T19:09:35.654Z,5.60
2023-05-08T19:12:06.757Z,5.23
2023-05-08T19:14:40.385Z,5.70
2023-05-08T19:17:13.156Z,5.00
2023-05-08T19:19:44.695Z,5.10
2023-05-08T19:22:15.583Z,5.13
2023-05-08T19:24:46.447Z,4.73
2023-05-08T19:27:17.358Z,5.10
2023-05-08T19:29:51.046Z,5.37
2023-05-08T19:32:23.879Z,5.10
2023-05-08T19:34:57.455Z,5.03
2023-05-08T19:37:29.084Z,4.67
2023-05-08T19:40:00.536Z,5.00
2023-05-08T19:42:31.423Z,4.00
2023-05-08T19:45:04.943Z,4.80
2023-05-08T19:47:35.836Z,5.20
2023-05-08T19:50:07.438Z,5.03
2023-05-08T19:52:38.317Z,5.33
2023-05-08T19:55:10.825Z,5.13
2023-05-08T19:57:41.757Z,4.60
2023-05-08T20:00:16.195Z,6.17
2023-05-08T20:02:47.275Z,4.67
2023-05-08T20:05:23.051Z,4.70
2023-05-08T20:07:55.260Z,4.90
2023-05-08T20:10:29.499Z,5.83
2023-05-08T20:13:00.916Z,5.30
2023-05-08T20:15:34.426Z,5.17
2023-05-08T20:18:05.687Z,4.97
2023-05-08T20:20:36.877Z,4.90
2023-05-08T20:23:07.765Z,5.17
2023-05-08T20:25:38.674Z,5.23
2023-05-08T20:28:09.617Z,4.70
2023-05-08T20:30:43.176Z,5.47
2023-05-08T20:33:14.140Z,5.70
2023-05-08T20:35:45.344Z,5.23
2023-05-08T20:38:16.854Z,5.30
2023-05-08T20:40:47.813Z,5.93
2023-05-08T20:43:19.599Z,5.33
2023-05-08T20:45:53.082Z,5.90
2023-05-08T20:48:24.373Z,6.00
2023-05-08T20:50:55.314Z,5.80
2023-05-08T20:53:26.315Z,6.10
2023-05-08T20:56:03.441Z,6.17
2023-05-08T20:58:34.841Z,5.63
2023-05-08T21:01:08.449Z,6.43
2023-05-08T21:03:39.429Z,6.00
2023-05-08T21:06:11.087Z,6.83
2023-05-08T21:08:41.953Z,6.17
2023-05-08T21:11:13.214Z,7.00
2023-05-08T21:13:44.537Z,6.23
2023-05-08T21:16:18.040Z,6.53
2023-05-08T21:18:49.112Z,6.40
2023-05-08T21:21:20.588Z,6.67
2023-05-08T21:23:51.496Z,6.57
2023-05-08T21:26:23.788Z,6.37
2023-05-08T21:28:58.748Z,6.40
2023-05-08T21:31:32.239Z,6.67
2023-05-08T21:34:03.205Z,6.80
2023-05-08T21:36:35.260Z,7.23
2023-05-08T21:39:06.786Z,6.63
2023-05-08T21:41:37.853Z,7.17
2023-05-08T21:44:11.658Z,6.30
2023-05-08T21:46:45.315Z,6.50
2023-05-08T21:49:16.218Z,6.50
2023-05-08T21:51:47.340Z,5.90
2023-05-08T21:54:18.199Z,6.37
2023-05-08T21:56:49.083Z,6.57
2023-05-08T21:59:20.063Z,7.30
2023-05-08T22:01:54.347Z,7.57
2023-05-08T22:04:25.706Z,6.43
2023-05-08T22:06:56.630Z,7.50
2023-05-08T22:09:27.655Z,6.80
2023-05-08T22:11:58.614Z,6.60
2023-05-08T22:14:29.467Z,6.97
2023-05-08T22:17:02.984Z,7.20
2023-05-08T22:19:34.291Z,7.00
2023-05-08T22:22:05.326Z,6.53
2023-05-08T22:24:36.256Z,7.30
2023-05-08T22:27:07.299Z,6.57
2023-05-08T22:29:38.100Z,7.00
2023-05-08T22:32:14.656Z,7.20
2023-05-08T22:34:46.544Z,6.47
2023-05-08T22:37:17.860Z,7.50
2023-05-08T22:39:48.748Z,7.43
2023-05-08T22:42:25.372Z,7.30
2023-05-08T22:44:56.523Z,7.40
2023-05-08T22:47:32.955Z,7.87
2023-05-08T22:50:11.080Z,8.00
2023-05-08T22:52:42.490Z,7.97
2023-05-08T22:55:16.118Z,8.60
2023-05-08T22:57:47.619Z,8.10
2023-05-08T23:00:19.201Z,8.70
2023-05-08T23:02:52.871Z,8.60
2023-05-08T23:05:23.974Z,8.80
2023-05-08T23:07:54.871Z,8.83
2023-05-08T23:10:25.780Z,9.00
2023-05-08T23:12:56.687Z,8.93
2023-05-08T23:15:27.603Z,8.87
2023-05-08T23:18:01.115Z,8.50
2023-05-08T23:20:32.127Z,8.87
2023-05-08T23:23:03.114Z,8.47
2023-05-08T23:25:33.996Z,9.20
2023-05-08T23:28:04.919Z,8.83
2023-05-08T23:30:35.936Z,9.73
2023-05-08T23:33:09.804Z,8.93
2023-05-08T23:35:41.868Z,9.93
2023-05-08T23:38:12.810Z,10.30
2023-05-08T23:40:43.679Z,10.07
2023-05-08T23:43:14.566Z,11.00
2023-05-08T23:45:48.025Z,11.00
2023-05-08T23:48:21.651Z,10.77
2023-05-08T23:50:52.585Z,11.17
2023-05-08T23:53:23.604Z,10.30
2023-05-08T23:55:54.632Z,11.70
2023-05-08T23:58:26.402Z,11.70
